createdAt,value
2022-07-26T00:00:06.168Z,95214.88
2022-07-26T00:02:32.830Z,95198.66
2022-07-26T00:04:59.517Z,95201.16
2022-07-26T00:07:26.119Z,95202.75
2022-07-26T00:09:52.679Z,95202.66
2022-07-26T00:12:19.284Z,95213.16
2022-07-26T00:14:45.917Z,95224.81
2022-07-26T00:17:12.493Z,95219.75
2022-07-26T00:19:39.396Z,95222.91
2022-07-26T00:22:24.916Z,95222.50
2022-07-26T00:24:51.586Z,95220.75
2022-07-26T00:27:18.197Z,95219.63
2022-07-26T00:29:44.882Z,95216.63
2022-07-26T00:32:11.646Z,95231.88
2022-07-26T00:34:38.277Z,95218.75
2022-07-26T00:37:04.963Z,95224.41
2022-07-26T00:39:31.550Z,95228.19
2022-07-26T00:41:58.292Z,95227.88
2022-07-26T00:44:24.867Z,95224.63
2022-07-26T00:46:51.509Z,95224.34
2022-07-26T00:49:18.174Z,95214.41
2022-07-26T00:51:45.596Z,95212.44
2022-07-26T00:54:13.217Z,95216.91
2022-07-26T00:56:40.179Z,95212.28
2022-07-26T00:59:07.023Z,95220.06
2022-07-26T01:01:34.027Z,95216.34
2022-07-26T01:04:00.777Z,95219.44
2022-07-26T01:06:27.722Z,95215.25
2022-07-26T01:08:54.832Z,95216.78
2022-07-26T01:11:21.526Z,95209.47
2022-07-26T01:13:51.402Z,95216.78
2022-07-26T01:16:18.350Z,95215.72
2022-07-26T01:18:45.103Z,95219.72
2022-07-26T01:21:14.026Z,95231.78
2022-07-26T01:23:41.512Z,95224.19
2022-07-26T01:26:08.542Z,95224.78
2022-07-26T01:28:40.248Z,95228.06
2022-07-26T01:31:08.632Z,95224.22
2022-07-26T01:33:35.505Z,95235.22
2022-07-26T01:36:02.179Z,95228.69
2022-07-26T01:38:29.310Z,95229.25
2022-07-26T01:40:56.115Z,95226.56
2022-07-26T01:43:22.727Z,95228.50
2022-07-26T01:45:49.411Z,95224.16
2022-07-26T01:48:16.233Z,95229.56
2022-07-26T01:50:42.882Z,95231.06
2022-07-26T01:53:09.652Z,95244.00
2022-07-26T01:55:37.085Z,95250.28
2022-07-26T01:58:05.562Z,95244.91
2022-07-26T02:00:33.135Z,95236.00
2022-07-26T02:03:00.317Z,95237.34
2022-07-26T02:05:27.084Z,95226.31
2022-07-26T02:07:53.759Z,95224.66
2022-07-26T02:10:21.995Z,95244.19
2022-07-26T02:12:48.591Z,95245.69
2022-07-26T02:15:16.087Z,95238.09
2022-07-26T02:17:43.345Z,95248.84
2022-07-26T02:20:10.284Z,95242.44
2022-07-26T02:22:36.869Z,95242.28
2022-07-26T02:25:05.533Z,95253.03
2022-07-26T02:27:32.860Z,95254.19
2022-07-26T02:29:59.505Z,95252.09
2022-07-26T02:32:26.232Z,95252.41
2022-07-26T02:34:52.811Z,95228.72
2022-07-26T02:37:19.479Z,95250.63
2022-07-26T02:39:46.085Z,95245.69
2022-07-26T02:42:12.687Z,95243.47
2022-07-26T02:44:39.341Z,95249.28
2022-07-26T02:47:06.005Z,95250.19
2022-07-26T02:49:32.709Z,95246.59
2022-07-26T02:51:59.358Z,95238.25
2022-07-26T02:54:25.993Z,95230.06
2022-07-26T02:56:52.578Z,95226.75
2022-07-26T02:59:19.244Z,95237.66
2022-07-26T03:01:45.967Z,95229.28
2022-07-26T03:04:12.642Z,95242.72
2022-07-26T03:06:39.290Z,95230.47
2022-07-26T03:09:05.938Z,95242.56
2022-07-26T03:11:32.529Z,95219.44
2022-07-26T03:13:59.115Z,95226.31
2022-07-26T03:16:29.416Z,95215.28
2022-07-26T03:18:56.591Z,95222.72
2022-07-26T03:21:23.452Z,95232.56
2022-07-26T03:23:50.094Z,95235.09
2022-07-26T03:26:16.816Z,95237.34
2022-07-26T03:28:44.709Z,95232.56
2022-07-26T03:31:14.262Z,95232.84
2022-07-26T03:33:41.123Z,95232.72
2022-07-26T03:36:11.478Z,95234.06
2022-07-26T03:38:38.608Z,95240.91
2022-07-26T03:41:05.366Z,95240.63
2022-07-26T03:43:31.982Z,95240.44
2022-07-26T03:46:03.267Z,95242.53
2022-07-26T03:48:31.400Z,95261.41
2022-07-26T03:50:58.133Z,95255.03
2022-07-26T03:53:24.750Z,95250.81
2022-07-26T03:56:10.127Z,95254.47
2022-07-26T03:58:36.798Z,95264.13
2022-07-26T04:01:04.376Z,95251.88
2022-07-26T04:03:31.139Z,95249.53
2022-07-26T04:05:57.931Z,95243.53
2022-07-26T04:08:24.877Z,95242.00
2022-07-26T04:10:51.573Z,95234.16
2022-07-26T04:13:19.262Z,95244.47
2022-07-26T04:15:46.084Z,95255.34
2022-07-26T04:18:14.275Z,95251.50
2022-07-26T04:20:41.383Z,95250.34
2022-07-26T04:23:11.611Z,95237.22
2022-07-26T04:25:40.813Z,95246.22
2022-07-26T04:28:09.170Z,95252.00
2022-07-26T04:30:36.405Z,95256.41
2022-07-26T04:33:03.587Z,95255.78
2022-07-26T04:35:30.326Z,95261.13
2022-07-26T04:37:57.026Z,95243.06
2022-07-26T04:40:24.928Z,95250.00
2022-07-26T04:42:52.485Z,95256.41
2022-07-26T04:45:20.048Z,95271.25
2022-07-26T04:47:52.482Z,95257.50
2022-07-26T04:50:21.023Z,95265.47
2022-07-26T04:52:51.622Z,95272.13
2022-07-26T04:55:19.078Z,95265.47
2022-07-26T04:57:47.677Z,95270.94
2022-07-26T05:00:23.016Z,95272.69
2022-07-26T05:02:56.660Z,95265.97
2022-07-26T05:05:25.278Z,95273.84
2022-07-26T05:07:54.197Z,95270.06
2022-07-26T05:10:22.962Z,95269.09
2022-07-26T05:12:49.949Z,95274.00
2022-07-26T05:15:16.985Z,95252.31
2022-07-26T05:17:44.422Z,95273.47
2022-07-26T05:20:14.237Z,95263.28
2022-07-26T05:22:41.354Z,95282.06
2022-07-26T05:25:08.629Z,95268.63
2022-07-26T05:27:35.436Z,95267.44
2022-07-26T05:30:02.106Z,95277.69
2022-07-26T05:32:28.745Z,95288.41
2022-07-26T05:34:55.602Z,95280.53
2022-07-26T05:37:22.263Z,95268.78
2022-07-26T05:39:48.875Z,95281.81
2022-07-26T05:42:15.498Z,95280.47
2022-07-26T05:44:42.632Z,95289.88
2022-07-26T05:47:10.549Z,95277.53
2022-07-26T05:49:40.493Z,95289.38
2022-07-26T05:52:08.111Z,95277.81
2022-07-26T05:54:35.102Z,95280.09
2022-07-26T05:57:02.017Z,95277.22
2022-07-26T05:59:28.757Z,95278.41
2022-07-26T06:01:58.868Z,95270.72
2022-07-26T06:04:26.787Z,95265.47
2022-07-26T06:06:54.898Z,95284.16
2022-07-26T06:09:24.204Z,95282.03
2022-07-26T06:11:51.312Z,95284.78
2022-07-26T06:14:18.521Z,95289.22
2022-07-26T06:16:46.830Z,95296.69
2022-07-26T06:19:13.770Z,95300.88
2022-07-26T06:21:42.220Z,95299.09
2022-07-26T06:24:09.111Z,95292.50
2022-07-26T06:26:35.971Z,95289.06
2022-07-26T06:29:04.030Z,95298.44
2022-07-26T06:31:31.184Z,95296.94
2022-07-26T06:33:57.850Z,95291.75
2022-07-26T06:36:29.974Z,95290.13
2022-07-26T06:38:57.825Z,95304.44
2022-07-26T06:41:24.515Z,95295.94
2022-07-26T06:43:51.194Z,95283.56
2022-07-26T06:46:19.377Z,95315.16
2022-07-26T06:48:47.292Z,95294.22
2022-07-26T06:51:14.409Z,95307.91
2022-07-26T06:53:41.049Z,95310.91
2022-07-26T06:56:07.998Z,95307.00
2022-07-26T06:58:34.630Z,95296.91
2022-07-26T07:01:01.309Z,95304.97
2022-07-26T07:03:27.938Z,95299.41
2022-07-26T07:05:54.665Z,95292.72
2022-07-26T07:08:23.403Z,95302.22
2022-07-26T07:10:50.798Z,95293.09
2022-07-26T07:13:18.033Z,95300.22
2022-07-26T07:15:44.820Z,95292.72
2022-07-26T07:18:11.958Z,95297.41
2022-07-26T07:20:40.240Z,95285.19
2022-07-26T07:23:07.801Z,95288.50
2022-07-26T07:25:34.628Z,95284.75
2022-07-26T07:28:01.321Z,95284.84
2022-07-26T07:30:28.306Z,95272.00
2022-07-26T07:32:55.820Z,95293.91
2022-07-26T07:35:23.242Z,95284.84
2022-07-26T07:37:52.569Z,95295.41
2022-07-26T07:40:21.087Z,95292.84
2022-07-26T07:42:47.736Z,95292.44
2022-07-26T07:45:14.995Z,95276.81
2022-07-26T07:47:41.840Z,95277.97
2022-07-26T07:50:09.084Z,95284.47
2022-07-26T07:52:36.122Z,95290.88
2022-07-26T07:55:37.828Z,95281.47
2022-07-26T07:57:49.781Z,95290.44
2022-07-26T08:00:19.310Z,95283.78
2022-07-26T08:02:53.623Z,95284.41
2022-07-26T08:05:20.363Z,95290.47
2022-07-26T08:07:48.405Z,95278.25
2022-07-26T08:10:15.450Z,95281.59
2022-07-26T08:12:44.298Z,95290.31
2022-07-26T08:15:11.431Z,95280.91
2022-07-26T08:17:41.761Z,95284.78
2022-07-26T08:20:10.849Z,95286.31
2022-07-26T08:22:42.732Z,95277.50
2022-07-26T08:25:09.937Z,95274.97
2022-07-26T08:27:40.833Z,95286.44
2022-07-26T08:30:08.540Z,95280.16
2022-07-26T08:32:35.784Z,95284.16
2022-07-26T08:35:17.642Z,95285.59
2022-07-26T08:37:46.280Z,95283.72
2022-07-26T08:40:13.009Z,95281.84
2022-07-26T08:42:39.979Z,95282.53
2022-07-26T08:45:07.129Z,95278.88
2022-07-26T08:47:37.758Z,95282.09
2022-07-26T08:50:09.752Z,95276.13
2022-07-26T08:52:40.015Z,95279.75
2022-07-26T08:55:07.206Z,95278.97
2022-07-26T08:57:34.484Z,95283.81
2022-07-26T09:00:19.447Z,95289.19
2022-07-26T09:02:46.671Z,95288.06
2022-07-26T09:05:13.569Z,95295.34
2022-07-26T09:07:40.864Z,95293.13
2022-07-26T09:10:10.413Z,95284.97
2022-07-26T09:12:38.062Z,95282.03
2022-07-26T09:15:07.522Z,95279.28
2022-07-26T09:17:40.932Z,95280.78
2022-07-26T09:20:09.183Z,95273.50
2022-07-26T09:22:37.685Z,95266.59
2022-07-26T09:25:20.589Z,95273.31
2022-07-26T09:27:47.687Z,95281.44
2022-07-26T09:30:15.187Z,95273.59
2022-07-26T09:32:58.960Z,95276.59
2022-07-26T09:38:14.793Z,95284.00
2022-07-26T09:40:41.881Z,95269.44
2022-07-26T09:43:16.492Z,95278.09
2022-07-26T09:46:05.336Z,95266.66
2022-07-26T09:48:52.386Z,95274.50
2022-07-26T09:51:40.665Z,95273.41
2022-07-26T09:54:09.069Z,95279.28
2022-07-26T09:56:44.846Z,95282.56
2022-07-26T09:59:14.081Z,95277.06
2022-07-26T10:01:40.844Z,95272.19
2022-07-26T10:04:08.090Z,95284.75
2022-07-26T10:06:35.083Z,95281.06
2022-07-26T10:09:02.671Z,95275.38
2022-07-26T10:11:35.664Z,95271.13
2022-07-26T10:14:33.938Z,95278.09
2022-07-26T10:17:31.030Z,95284.50
2022-07-26T10:20:10.750Z,95283.78
2022-07-26T10:22:47.336Z,95274.38
2022-07-26T10:25:20.169Z,95282.00
2022-07-26T10:28:00.029Z,95269.94
2022-07-26T10:30:34.235Z,95282.31
2022-07-26T10:33:10.280Z,95278.09
2022-07-26T10:35:38.871Z,95281.81
2022-07-26T10:38:07.046Z,95279.81
2022-07-26T10:40:34.091Z,95281.59
2022-07-26T10:46:20.723Z,95272.00
2022-07-26T10:49:04.580Z,95270.28
2022-07-26T10:51:37.064Z,95283.53
2022-07-26T10:54:08.947Z,95270.38
2022-07-26T10:56:36.158Z,95281.63
2022-07-26T10:59:04.193Z,95269.06
2022-07-26T11:01:39.557Z,95255.09
2022-07-26T11:04:17.533Z,95266.94
2022-07-26T11:06:45.887Z,95262.81
2022-07-26T11:09:13.435Z,95255.72
2022-07-26T11:11:46.471Z,95258.16
2022-07-26T11:14:16.243Z,95260.59
2022-07-26T11:16:45.594Z,95263.34
2022-07-26T11:19:26.050Z,95260.13
2022-07-26T11:22:01.156Z,95256.34
2022-07-26T11:24:28.803Z,95250.81
2022-07-26T11:26:57.270Z,95242.88
2022-07-26T11:29:37.908Z,95239.91
2022-07-26T11:32:17.991Z,95245.50
2022-07-26T11:34:45.565Z,95236.84
2022-07-26T11:37:12.438Z,95238.91
2022-07-26T11:39:39.138Z,95240.88
2022-07-26T11:42:08.297Z,95233.72
2022-07-26T11:44:36.028Z,95229.13
2022-07-26T11:47:20.344Z,95231.69
2022-07-26T11:50:09.683Z,95225.69
2022-07-26T11:52:35.264Z,95233.66
2022-07-26T11:55:01.879Z,95229.31
2022-07-26T11:57:32.697Z,95225.59
2022-07-26T12:00:00.672Z,95227.44
2022-07-26T12:02:29.088Z,95233.06
2022-07-26T12:05:16.484Z,95231.63
2022-07-26T12:08:00.937Z,95228.09
2022-07-26T12:10:28.427Z,95222.03
2022-07-26T12:13:09.943Z,95223.03
2022-07-26T12:15:45.653Z,95233.34
2022-07-26T12:18:21.846Z,95223.72
2022-07-26T12:21:08.433Z,95226.69
2022-07-26T12:23:48.154Z,95227.00
2022-07-26T12:26:22.269Z,95218.69
2022-07-26T12:28:48.953Z,95204.25
2022-07-26T12:31:33.006Z,95223.53
2022-07-26T12:33:59.854Z,95211.97
2022-07-26T12:36:29.576Z,95215.84
2022-07-26T12:39:00.808Z,95212.03
2022-07-26T12:41:40.483Z,95205.84
2022-07-26T12:44:11.995Z,95202.19
2022-07-26T12:46:39.268Z,95198.84
2022-07-26T12:49:06.053Z,95198.41
2022-07-26T12:51:32.928Z,95189.34
2022-07-26T12:53:59.615Z,95191.91
2022-07-26T12:56:26.247Z,95190.63
2022-07-26T12:58:54.130Z,95188.66
2022-07-26T13:01:21.396Z,95162.53
2022-07-26T13:03:48.121Z,95195.53
2022-07-26T13:06:14.772Z,95184.19
2022-07-26T13:08:41.357Z,95176.78
2022-07-26T13:11:08.015Z,95177.66
2022-07-26T13:13:34.622Z,95172.38
2022-07-26T13:16:01.286Z,95175.75
2022-07-26T13:18:27.914Z,95160.97
2022-07-26T13:20:54.674Z,95179.91
2022-07-26T13:23:22.112Z,95175.09
2022-07-26T13:25:52.635Z,95172.19
2022-07-26T13:28:19.597Z,95167.47
2022-07-26T13:30:46.269Z,95166.50
2022-07-26T13:33:12.946Z,95151.38
2022-07-26T13:35:42.689Z,95156.31
2022-07-26T13:38:09.831Z,95143.38
2022-07-26T13:40:37.071Z,95156.56
2022-07-26T13:43:05.002Z,95147.81
2022-07-26T13:45:31.701Z,95149.63
2022-07-26T13:47:59.664Z,95159.56
2022-07-26T13:50:28.186Z,95170.47
2022-07-26T13:52:56.389Z,95164.41
2022-07-26T13:55:23.483Z,95153.84
2022-07-26T13:57:57.191Z,95159.84
2022-07-26T14:00:29.533Z,95146.78
2022-07-26T14:02:59.241Z,95157.91
2022-07-26T14:05:27.083Z,95149.88
2022-07-26T14:07:54.525Z,95153.88
2022-07-26T14:10:22.210Z,95151.78
2022-07-26T14:12:49.506Z,95140.00
2022-07-26T14:15:22.160Z,95146.28
2022-07-26T14:17:50.040Z,95143.22
2022-07-26T14:20:20.067Z,95133.88
2022-07-26T14:22:47.459Z,95145.78
2022-07-26T14:25:14.749Z,95138.06
2022-07-26T14:27:41.375Z,95142.59
2022-07-26T14:30:08.311Z,95138.09
2022-07-26T14:32:35.006Z,95136.94
2022-07-26T14:35:01.938Z,95153.41
2022-07-26T14:37:44.894Z,95132.84
2022-07-26T14:40:14.257Z,95146.13
2022-07-26T14:42:41.053Z,95137.03
2022-07-26T14:45:09.629Z,95132.91
2022-07-26T14:47:36.887Z,95132.81
2022-07-26T14:50:07.342Z,95139.94
2022-07-26T14:52:37.235Z,95132.59
2022-07-26T14:55:04.719Z,95128.44
2022-07-26T14:57:31.366Z,95127.25
2022-07-26T14:59:59.325Z,95113.09
2022-07-26T15:02:26.740Z,95109.81
2022-07-26T15:04:53.548Z,95102.09
2022-07-26T15:07:20.308Z,95105.72
2022-07-26T15:09:46.928Z,95099.25
2022-07-26T15:12:13.640Z,95084.84
2022-07-26T15:14:42.061Z,95091.16
2022-07-26T15:17:08.649Z,95089.25
2022-07-26T15:19:35.340Z,95087.16
2022-07-26T15:22:02.174Z,95087.84
2022-07-26T15:24:29.093Z,95088.59
2022-07-26T15:26:55.874Z,95090.31
2022-07-26T15:29:22.636Z,95086.56
2022-07-26T15:31:49.447Z,95090.41
2022-07-26T15:34:16.374Z,95099.75
2022-07-26T15:36:43.444Z,95083.44
2022-07-26T15:39:18.338Z,95096.47
2022-07-26T15:41:47.291Z,95102.78
2022-07-26T15:44:17.091Z,95100.59
2022-07-26T15:46:48.628Z,95106.19
2022-07-26T15:49:16.874Z,95101.97
2022-07-26T15:51:44.397Z,95086.91
2022-07-26T15:54:13.350Z,95094.59
2022-07-26T15:56:41.020Z,95091.19
2022-07-26T15:59:08.433Z,95076.97
2022-07-26T16:01:36.704Z,95085.75
2022-07-26T16:04:05.267Z,95075.88
2022-07-26T16:06:33.403Z,95061.19
2022-07-26T16:09:19.134Z,95068.69
2022-07-26T16:11:47.103Z,95082.75
2022-07-26T16:14:14.111Z,95079.31
2022-07-26T16:16:40.830Z,95070.88
2022-07-26T16:19:07.762Z,95065.03
2022-07-26T16:21:34.744Z,95070.53
2022-07-26T16:24:06.465Z,95064.22
2022-07-26T16:26:33.849Z,95063.72
2022-07-26T16:29:00.845Z,95061.19
2022-07-26T16:31:27.766Z,95065.25
2022-07-26T16:33:56.854Z,95062.13
2022-07-26T16:36:23.925Z,95076.72
2022-07-26T16:38:50.541Z,95072.94
2022-07-26T16:41:17.340Z,95063.03
2022-07-26T16:43:43.939Z,95062.75
2022-07-26T16:46:10.679Z,95055.72
2022-07-26T16:48:37.563Z,95053.28
2022-07-26T16:51:04.816Z,95047.69
2022-07-26T16:53:31.422Z,95048.59
2022-07-26T16:55:58.066Z,95055.94
2022-07-26T16:58:24.658Z,95060.72
2022-07-26T17:00:51.317Z,95051.53
2022-07-26T17:03:18.480Z,95061.16
2022-07-26T17:05:46.317Z,95064.66
2022-07-26T17:08:13.257Z,95064.78
2022-07-26T17:10:39.981Z,95063.38
2022-07-26T17:13:07.033Z,95059.38
2022-07-26T17:15:33.745Z,95060.81
2022-07-26T17:18:00.529Z,95051.72
2022-07-26T17:20:27.371Z,95072.00
2022-07-26T17:22:54.457Z,95067.06
2022-07-26T17:25:21.215Z,95064.63
2022-07-26T17:27:47.826Z,95065.09
2022-07-26T17:30:14.637Z,95071.72
2022-07-26T17:32:41.351Z,95078.19
2022-07-26T17:35:09.181Z,95061.09
2022-07-26T17:37:36.115Z,95066.81
2022-07-26T17:40:07.814Z,95083.69
2022-07-26T17:42:34.737Z,95064.63
2022-07-26T17:45:01.342Z,95077.66
2022-07-26T17:47:30.363Z,95070.78
2022-07-26T17:50:26.347Z,95071.66
2022-07-26T17:52:50.257Z,95073.56
2022-07-26T17:55:18.555Z,95084.16
2022-07-26T17:57:46.047Z,95083.19
2022-07-26T18:00:13.600Z,95092.66
2022-07-26T18:02:40.264Z,95082.06
2022-07-26T18:05:07.080Z,95076.63
2022-07-26T18:07:33.716Z,95086.72
2022-07-26T18:10:00.281Z,95076.03
2022-07-26T18:12:26.858Z,95083.19
2022-07-26T18:14:53.426Z,95100.38
2022-07-26T18:17:19.976Z,95093.44
2022-07-26T18:19:46.640Z,95101.72
2022-07-26T18:22:13.208Z,95092.28
2022-07-26T18:24:39.858Z,95097.38
2022-07-26T18:27:06.675Z,95089.66
2022-07-26T18:29:33.302Z,95105.72
2022-07-26T18:32:01.789Z,95095.81
2022-07-26T18:34:28.822Z,95095.31
2022-07-26T18:36:55.740Z,95078.97
2022-07-26T18:39:22.446Z,95087.72
2022-07-26T18:41:49.139Z,95098.44
2022-07-26T18:44:15.807Z,95095.69
2022-07-26T18:46:42.464Z,95107.44
2022-07-26T18:49:09.942Z,95093.03
2022-07-26T18:51:48.834Z,95105.22
2022-07-26T18:54:16.193Z,95113.09
2022-07-26T18:56:42.843Z,95106.72
2022-07-26T18:59:09.923Z,95113.28
2022-07-26T19:01:36.874Z,95110.31
2022-07-26T19:04:06.823Z,95113.66
2022-07-26T19:06:34.762Z,95099.97
2022-07-26T19:09:01.488Z,95112.84
2022-07-26T19:11:29.639Z,95102.97
2022-07-26T19:13:56.236Z,95117.72
2022-07-26T19:16:23.198Z,95110.28
2022-07-26T19:18:53.825Z,95124.19
2022-07-26T19:21:23.649Z,95115.56
2022-07-26T19:23:50.407Z,95119.88
2022-07-26T19:26:17.195Z,95120.69
2022-07-26T19:28:43.810Z,95128.03
2022-07-26T19:31:10.791Z,95120.25
2022-07-26T19:33:37.424Z,95116.50
2022-07-26T19:36:04.342Z,95140.06
2022-07-26T19:38:33.072Z,95147.28
2022-07-26T19:41:00.637Z,95135.41
2022-07-26T19:43:27.587Z,95125.75
2022-07-26T19:45:54.295Z,95136.34
2022-07-26T19:48:21.183Z,95141.91
2022-07-26T19:50:47.822Z,95146.91
2022-07-26T19:53:14.576Z,95143.88
2022-07-26T19:55:41.770Z,95139.81
2022-07-26T19:58:08.564Z,95138.81
2022-07-26T20:00:35.604Z,95137.94
2022-07-26T20:03:02.284Z,95140.09
2022-07-26T20:05:28.886Z,95138.13
2022-07-26T20:07:58.144Z,95144.59
2022-07-26T20:10:30.054Z,95135.09
2022-07-26T20:12:58.979Z,95152.13
2022-07-26T20:15:26.156Z,95134.00
2022-07-26T20:17:52.899Z,95146.84
2022-07-26T20:20:20.150Z,95142.59
2022-07-26T20:22:47.066Z,95159.13
2022-07-26T20:25:18.049Z,95152.63
2022-07-26T20:27:48.344Z,95155.94
2022-07-26T20:30:15.049Z,95161.91
2022-07-26T20:32:41.623Z,95169.97
2022-07-26T20:35:08.589Z,95170.72
2022-07-26T20:37:35.706Z,95175.34
2022-07-26T20:40:02.380Z,95165.19
2022-07-26T20:42:28.957Z,95174.59
2022-07-26T20:44:56.034Z,95184.13
2022-07-26T20:47:22.947Z,95166.66
2022-07-26T20:49:49.884Z,95158.63
2022-07-26T20:52:16.693Z,95164.28
2022-07-26T20:54:43.322Z,95174.41
2022-07-26T20:57:09.901Z,95168.75
2022-07-26T20:59:36.514Z,95163.03
2022-07-26T21:02:03.262Z,95154.72
2022-07-26T21:04:30.225Z,95159.16
2022-07-26T21:06:56.776Z,95154.81
2022-07-26T21:09:27.061Z,95160.06
2022-07-26T21:11:54.554Z,95172.00
2022-07-26T21:14:21.127Z,95145.66
2022-07-26T21:16:47.941Z,95156.09
2022-07-26T21:19:15.057Z,95154.84
2022-07-26T21:21:41.887Z,95161.84
2022-07-26T21:24:08.675Z,95152.09
2022-07-26T21:26:35.312Z,95169.69
2022-07-26T21:29:01.899Z,95166.66
2022-07-26T21:31:28.595Z,95160.44
2022-07-26T21:33:55.510Z,95163.25
2022-07-26T21:36:22.427Z,95165.78
2022-07-26T21:38:49.108Z,95157.47
2022-07-26T21:41:15.770Z,95170.56
2022-07-26T21:43:42.422Z,95172.06
2022-07-26T21:46:12.624Z,95169.94
2022-07-26T21:48:40.216Z,95161.41
2022-07-26T21:51:07.386Z,95160.06
2022-07-26T21:53:34.063Z,95150.66
2022-07-26T21:56:00.665Z,95152.44
2022-07-26T21:58:28.108Z,95163.75
2022-07-26T22:01:06.484Z,95169.38
2022-07-26T22:03:35.281Z,95165.97
2022-07-26T22:06:02.010Z,95172.22
2022-07-26T22:08:28.750Z,95173.09
2022-07-26T22:10:55.624Z,95179.63
2022-07-26T22:13:22.237Z,95173.38
2022-07-26T22:15:49.037Z,95181.03
2022-07-26T22:18:15.878Z,95183.88
2022-07-26T22:20:44.230Z,95166.09
2022-07-26T22:23:12.177Z,95173.97
2022-07-26T22:25:39.457Z,95179.50
2022-07-26T22:28:08.297Z,95168.91
2022-07-26T22:30:35.045Z,95176.50
2022-07-26T22:33:03.890Z,95176.50
2022-07-26T22:35:35.984Z,95175.00
2022-07-26T22:38:12.880Z,95175.47
2022-07-26T22:40:41.317Z,95166.09
2022-07-26T22:43:08.260Z,95156.28
2022-07-26T22:45:35.797Z,95164.63
2022-07-26T22:48:04.114Z,95161.47
2022-07-26T22:50:31.158Z,95165.66
2022-07-26T22:52:57.787Z,95152.69
2022-07-26T22:55:24.578Z,95171.16
2022-07-26T22:57:51.186Z,95176.38
2022-07-26T23:00:19.579Z,95160.28
2022-07-26T23:02:47.866Z,95180.13
2022-07-26T23:05:15.836Z,95177.13
2022-07-26T23:07:43.575Z,95167.44
2022-07-26T23:10:15.258Z,95180.41
2022-07-26T23:12:42.371Z,95179.97
2022-07-26T23:15:09.902Z,95169.09
2022-07-26T23:17:36.833Z,95163.88
2022-07-26T23:20:06.664Z,95176.53
2022-07-26T23:22:34.078Z,95184.59
2022-07-26T23:25:00.728Z,95170.28
2022-07-26T23:27:27.345Z,95171.44
2022-07-26T23:29:54.010Z,95186.94
2022-07-26T23:32:20.659Z,95174.72
2022-07-26T23:34:47.262Z,95180.25
2022-07-26T23:37:13.872Z,95181.91
2022-07-26T23:39:40.565Z,95189.31
2022-07-26T23:42:07.360Z,95175.03
2022-07-26T23:44:34.333Z,95183.09
2022-07-26T23:47:01.215Z,95180.72
2022-07-26T23:49:27.925Z,95175.00
2022-07-26T23:51:55.976Z,95182.78
2022-07-26T23:54:22.877Z,95171.44
2022-07-26T23:56:49.560Z,95171.75
2022-07-26T23:59:16.198Z,95171.25
